createdAt,value
2023-01-21T00:02:00.649Z,100081.80
2023-01-21T00:04:27.324Z,100082.42
2023-01-21T00:06:53.942Z,100080.27
2023-01-21T00:09:20.679Z,100080.21
2023-01-21T00:11:47.363Z,100080.32
2023-01-21T00:14:14.038Z,100076.20
2023-01-21T00:16:40.707Z,100076.27
2023-01-21T00:19:07.413Z,100079.94
2023-01-21T00:21:34.086Z,100074.79
2023-01-21T00:24:00.754Z,100072.21
2023-01-21T00:26:27.422Z,100073.66
2023-01-21T00:28:54.101Z,100078.04
2023-01-21T00:31:20.941Z,100081.02
2023-01-21T00:33:48.387Z,100078.40
2023-01-21T00:36:18.431Z,100075.63
2023-01-21T00:38:46.996Z,100078.59
2023-01-21T00:41:13.893Z,100075.88
2023-01-21T00:43:41.477Z,100078.18
2023-01-21T00:46:08.287Z,100071.77
2023-01-21T00:48:35.116Z,100073.85
2023-01-21T00:51:01.883Z,100073.48
2023-01-21T00:53:29.662Z,100068.65
2023-01-21T00:56:01.433Z,100072.48
2023-01-21T00:58:28.638Z,100072.00
2023-01-21T01:01:04.611Z,100069.58
2023-01-21T01:03:31.836Z,100068.88
2023-01-21T01:06:05.952Z,100077.92
2023-01-21T01:08:32.719Z,100075.88
2023-01-21T01:10:59.639Z,100072.64
2023-01-21T01:13:27.643Z,100066.46
2023-01-21T01:15:56.132Z,100065.34
2023-01-21T01:18:23.646Z,100066.30
2023-01-21T01:20:50.331Z,100062.91
2023-01-21T01:23:17.093Z,100064.02
2023-01-21T01:25:43.740Z,100060.55
2023-01-21T01:28:10.541Z,100050.17
2023-01-21T01:30:37.284Z,100053.88
2023-01-21T01:33:04.187Z,100054.94
2023-01-21T01:35:32.532Z,100051.63
2023-01-21T01:37:59.167Z,100053.33
2023-01-21T01:40:25.783Z,100057.25
2023-01-21T01:42:52.465Z,100055.31
2023-01-21T01:45:20.690Z,100059.98
2023-01-21T01:47:50.336Z,100060.95
2023-01-21T01:50:18.538Z,100062.06
2023-01-21T01:52:45.465Z,100060.41
2023-01-21T01:55:12.099Z,100055.16
2023-01-21T01:57:40.359Z,100054.09
2023-01-21T02:00:08.565Z,100054.45
2023-01-21T02:02:41.188Z,100054.10
2023-01-21T02:05:09.472Z,100052.33
2023-01-21T02:07:39.489Z,100053.01
2023-01-21T02:10:07.636Z,100048.48
2023-01-21T02:12:35.521Z,100046.74
2023-01-21T02:15:02.601Z,100048.11
2023-01-21T02:18:17.120Z,100059.23
2023-01-21T02:20:54.504Z,100067.86
2023-01-21T02:23:51.875Z,100066.45
2023-01-21T02:26:36.821Z,100066.56
2023-01-21T02:29:27.196Z,100065.90
2023-01-21T02:32:12.139Z,100077.92
2023-01-21T02:34:52.392Z,100070.02
2023-01-21T02:38:09.677Z,100079.39
2023-01-21T02:40:38.779Z,100075.71
2023-01-21T02:43:18.470Z,100090.13
2023-01-21T02:45:53.531Z,100096.34
2023-01-21T02:48:22.440Z,100086.76
2023-01-21T02:50:53.061Z,100096.08
2023-01-21T02:53:26.725Z,100090.85
2023-01-21T02:55:53.737Z,100104.77
2023-01-21T02:58:26.078Z,100097.86
2023-01-21T03:01:23.276Z,100102.59
2023-01-21T03:04:05.176Z,100079.39
2023-01-21T03:06:49.027Z,100079.52
2023-01-21T03:09:29.112Z,100089.56
2023-01-21T03:12:08.647Z,100080.33
2023-01-21T03:15:33.505Z,100090.73
2023-01-21T03:18:07.042Z,100078.60
2023-01-21T03:20:44.781Z,100075.31
2023-01-21T03:23:16.624Z,100065.61
2023-01-21T03:25:43.323Z,100069.94
2023-01-21T03:28:12.081Z,100078.30
2023-01-21T03:30:40.862Z,100105.21
2023-01-21T03:33:07.911Z,100079.35
2023-01-21T03:35:37.579Z,100090.94
2023-01-21T03:38:11.479Z,100093.13
2023-01-21T03:40:43.267Z,100089.92
2023-01-21T03:43:10.070Z,100096.54
2023-01-21T03:45:41.445Z,100077.32
2023-01-21T03:48:41.635Z,100099.36
2023-01-21T03:51:26.346Z,100066.02
2023-01-21T03:53:55.999Z,100069.36
2023-01-21T03:56:24.058Z,100065.92
2023-01-21T03:58:50.889Z,100076.65
2023-01-21T04:01:17.725Z,100075.48
2023-01-21T04:03:44.657Z,100073.40
2023-01-21T04:06:19.992Z,100096.13
2023-01-21T04:08:46.759Z,100098.73
2023-01-21T04:11:13.472Z,100100.11
2023-01-21T04:13:40.118Z,100109.77
2023-01-21T04:16:07.393Z,100103.47
2023-01-21T04:18:34.094Z,100103.09
2023-01-21T04:21:00.925Z,100102.08
2023-01-21T04:23:27.604Z,100102.94
2023-01-21T04:25:54.245Z,100095.61
2023-01-21T04:28:20.966Z,100095.73
2023-01-21T04:30:47.888Z,100105.84
2023-01-21T04:33:14.736Z,100103.46
2023-01-21T04:35:41.380Z,100105.95
2023-01-21T04:38:08.021Z,100105.61
2023-01-21T04:40:34.662Z,100108.91
2023-01-21T04:43:01.365Z,100114.92
2023-01-21T04:45:27.998Z,100093.74
2023-01-21T04:47:54.679Z,100093.59
2023-01-21T04:50:21.435Z,100102.13
2023-01-21T04:52:48.281Z,100102.01
2023-01-21T04:55:15.024Z,100110.17
2023-01-21T04:57:41.681Z,100111.71
2023-01-21T05:00:09.898Z,100121.91
2023-01-21T05:02:36.668Z,100125.89
2023-01-21T05:05:03.560Z,100116.01
2023-01-21T05:07:30.229Z,100105.23
2023-01-21T05:09:56.889Z,100112.50
2023-01-21T05:12:23.586Z,100107.66
2023-01-21T05:14:54.181Z,100105.07
2023-01-21T05:17:21.326Z,100104.23
2023-01-21T05:19:48.110Z,100105.52
2023-01-21T05:22:14.820Z,100108.86
2023-01-21T05:24:41.449Z,100119.49
2023-01-21T05:27:08.454Z,100122.14
2023-01-21T05:29:35.098Z,100112.23
2023-01-21T05:32:01.867Z,100114.08
2023-01-21T05:34:28.652Z,100109.10
2023-01-21T05:36:55.286Z,100120.31
2023-01-21T05:39:21.927Z,100125.52
2023-01-21T05:41:48.652Z,100120.49
2023-01-21T05:44:17.588Z,100118.38
2023-01-21T05:46:44.456Z,100126.01
2023-01-21T05:49:11.093Z,100115.80
2023-01-21T05:51:37.782Z,100111.54
2023-01-21T05:54:04.618Z,100124.98
2023-01-21T05:56:31.277Z,100116.34
2023-01-21T05:58:57.943Z,100121.36
2023-01-21T06:01:24.926Z,100123.56
2023-01-21T06:03:51.661Z,100113.52
2023-01-21T06:06:18.350Z,100119.77
2023-01-21T06:08:45.035Z,100119.09
2023-01-21T06:11:11.948Z,100117.88
2023-01-21T06:13:38.603Z,100125.84
2023-01-21T06:16:05.563Z,100122.35
2023-01-21T06:18:33.138Z,100125.13
2023-01-21T06:21:00.319Z,100125.98
2023-01-21T06:23:27.046Z,100126.66
2023-01-21T06:25:53.721Z,100129.23
2023-01-21T06:28:20.490Z,100125.38
2023-01-21T06:30:47.220Z,100126.14
2023-01-21T06:33:14.135Z,100120.70
2023-01-21T06:35:40.768Z,100124.80
2023-01-21T06:38:07.462Z,100121.26
2023-01-21T06:40:34.170Z,100120.50
2023-01-21T06:43:00.899Z,100118.33
2023-01-21T06:45:28.325Z,100121.88
2023-01-21T06:47:54.951Z,100130.08
2023-01-21T06:50:21.690Z,100131.27
2023-01-21T06:52:48.714Z,100127.95
2023-01-21T06:55:15.571Z,100121.83
2023-01-21T06:57:42.791Z,100122.02
2023-01-21T07:00:10.248Z,100125.55
2023-01-21T07:02:37.172Z,100135.89
2023-01-21T07:05:04.539Z,100144.64
2023-01-21T07:07:31.498Z,100156.57
2023-01-21T07:09:58.470Z,100167.13
2023-01-21T07:12:25.230Z,100171.61
2023-01-21T07:14:51.944Z,100177.84
2023-01-21T07:17:19.215Z,100188.24
2023-01-21T07:19:45.853Z,100189.09
2023-01-21T07:22:12.592Z,100193.81
2023-01-21T07:24:39.317Z,100204.27
2023-01-21T07:27:06.247Z,100213.67
2023-01-21T07:29:32.959Z,100219.43
2023-01-21T07:31:59.698Z,100215.95
2023-01-21T07:34:26.333Z,100220.98
2023-01-21T07:36:52.987Z,100224.08
2023-01-21T07:39:19.602Z,100234.55
2023-01-21T07:41:46.733Z,100235.71
2023-01-21T07:44:13.425Z,100248.45
2023-01-21T07:46:40.176Z,100248.22
2023-01-21T07:49:06.841Z,100250.70
2023-01-21T07:51:33.591Z,100254.85
2023-01-21T07:54:00.250Z,100259.21
2023-01-21T07:56:27.197Z,100256.41
2023-01-21T07:58:53.893Z,100253.77
2023-01-21T08:01:20.822Z,100253.68
2023-01-21T08:03:48.019Z,100259.08
2023-01-21T08:06:15.431Z,100252.80
2023-01-21T08:08:42.052Z,100255.40
2023-01-21T08:11:08.743Z,100261.63
2023-01-21T08:13:35.471Z,100255.88
2023-01-21T08:16:02.140Z,100255.38
2023-01-21T08:18:28.878Z,100254.45
2023-01-21T08:20:56.228Z,100260.80
2023-01-21T08:23:23.064Z,100269.06
2023-01-21T08:25:50.072Z,100277.06
2023-01-21T08:28:16.854Z,100284.75
2023-01-21T08:30:43.664Z,100292.13
2023-01-21T10:39:35.054Z,100311.79
2023-01-21T10:42:01.792Z,100308.20
2023-01-21T10:44:39.718Z,100299.36
2023-01-21T10:47:50.710Z,100291.00
2023-01-21T10:50:22.926Z,100283.20
2023-01-21T10:53:00.845Z,100299.66
2023-01-21T10:55:31.134Z,100307.70
2023-01-21T10:58:05.319Z,100302.38
2023-01-21T11:00:34.138Z,100291.56
2023-01-21T11:03:03.438Z,100295.99
2023-01-21T11:05:30.547Z,100314.27
2023-01-21T11:07:57.238Z,100310.30
2023-01-21T11:10:25.657Z,100310.66
2023-01-21T11:12:58.056Z,100317.98
2023-01-21T11:15:25.163Z,100315.27
2023-01-21T11:17:59.751Z,100315.98
2023-01-21T11:20:39.597Z,100318.08
2023-01-21T11:23:06.834Z,100321.77
2023-01-21T11:25:42.962Z,100311.55
2023-01-21T11:28:26.904Z,100316.85
2023-01-21T11:31:13.841Z,100309.63
2023-01-21T11:33:41.707Z,100303.64
2023-01-21T11:36:12.639Z,100314.30
2023-01-21T11:38:39.455Z,100324.73
2023-01-21T11:41:12.375Z,100322.13
2023-01-21T11:43:47.160Z,100323.58
2023-01-21T11:46:27.919Z,100325.09
2023-01-21T11:49:07.492Z,100328.25
2023-01-21T11:51:37.671Z,100331.61
2023-01-21T11:54:17.867Z,100331.56
2023-01-21T11:57:01.016Z,100328.70
2023-01-21T11:59:32.981Z,100329.34
2023-01-21T12:02:12.623Z,100327.90
2023-01-21T12:04:43.673Z,100336.01
2023-01-21T12:07:17.814Z,100336.85
2023-01-21T12:09:48.918Z,100340.38
2023-01-21T12:12:41.897Z,100343.33
2023-01-21T12:15:39.441Z,100339.98
2023-01-21T12:18:09.075Z,100337.52
2023-01-21T12:20:42.063Z,100337.85
2023-01-21T12:23:21.705Z,100349.89
2023-01-21T12:25:51.349Z,100355.51
2023-01-21T12:28:21.175Z,100369.58
2023-01-21T12:31:09.034Z,100372.69
2023-01-21T12:33:41.090Z,100376.73
2023-01-21T12:36:18.020Z,100392.57
2023-01-21T12:38:47.141Z,100403.36
2023-01-21T12:41:20.241Z,100407.94
2023-01-21T12:43:48.438Z,100420.40
2023-01-21T12:46:21.120Z,100427.52
2023-01-21T12:48:57.089Z,100428.46
2023-01-21T12:51:27.326Z,100437.47
2023-01-21T12:54:00.605Z,100436.71
2023-01-21T12:56:59.709Z,100431.58
2023-01-21T12:59:33.542Z,100432.15
2023-01-21T13:02:05.508Z,100427.96
2023-01-21T13:04:54.095Z,100433.25
2023-01-21T13:07:26.531Z,100432.98
2023-01-21T13:10:02.247Z,100441.20
2023-01-21T13:12:29.712Z,100448.73
2023-01-21T13:15:24.311Z,100453.30
2023-01-21T13:17:53.815Z,100456.48
2023-01-21T13:20:21.391Z,100462.09
2023-01-21T13:22:48.879Z,100458.64
2023-01-21T13:25:37.969Z,100458.48
2023-01-21T13:28:10.709Z,100462.30
2023-01-21T13:30:42.119Z,100464.41
2023-01-21T13:33:27.563Z,100457.29
2023-01-21T13:36:16.254Z,100459.52
2023-01-21T13:39:05.349Z,100462.74
2023-01-21T13:41:45.332Z,100469.83
2023-01-21T13:44:38.224Z,100472.09
2023-01-21T13:47:27.037Z,100479.54
2023-01-21T13:50:26.210Z,100486.98
2023-01-21T13:53:30.135Z,100492.36
2023-01-21T18:31:40.771Z,100836.78
2023-01-21T18:34:07.612Z,100845.03
2023-01-21T18:36:34.223Z,100840.73
2023-01-21T18:39:00.891Z,100843.02
2023-01-21T18:41:27.593Z,100846.98
2023-01-21T18:43:54.501Z,100847.30
2023-01-21T18:46:21.240Z,100843.63
2023-01-21T18:48:48.002Z,100848.51
2023-01-21T18:51:14.858Z,100858.42
2023-01-21T18:53:41.751Z,100858.46
2023-01-21T18:56:11.263Z,100859.68
2023-01-21T18:58:37.984Z,100861.23
2023-01-21T19:01:17.296Z,100862.95
2023-01-21T19:03:48.392Z,100869.70
2023-01-21T19:06:16.239Z,100875.94
2023-01-21T19:08:45.082Z,100875.09
2023-01-21T19:11:12.592Z,100883.46
2023-01-21T19:13:39.283Z,100885.92
2023-01-21T19:16:09.184Z,100889.23
2023-01-21T19:18:36.117Z,100894.96
2023-01-21T19:21:02.768Z,100895.47
2023-01-21T19:23:29.420Z,100903.29
2023-01-21T19:25:57.364Z,100902.96
2023-01-21T19:28:24.075Z,100904.17
2023-01-21T19:30:55.227Z,100904.68
2023-01-21T19:33:22.730Z,100909.17
2023-01-21T19:35:49.564Z,100909.98
2023-01-21T19:38:20.470Z,100912.92
2023-01-21T19:40:47.198Z,100916.72
2023-01-21T19:43:14.944Z,100914.09
2023-01-21T19:45:42.379Z,100918.23
2023-01-21T19:48:12.923Z,100917.17
2023-01-21T19:50:39.604Z,100923.27
2023-01-21T19:53:06.395Z,100924.98
2023-01-21T19:55:34.242Z,100930.80
2023-01-21T19:58:01.947Z,100931.25
2023-01-21T20:00:30.451Z,100934.50
2023-01-21T20:02:57.294Z,100939.34
2023-01-21T20:05:26.221Z,100943.48
2023-01-21T20:07:52.914Z,100940.85
2023-01-21T20:10:21.130Z,100941.70
2023-01-21T20:12:48.462Z,100948.98
2023-01-21T20:15:16.634Z,100950.88
2023-01-21T20:17:49.268Z,100953.81
2023-01-21T20:20:17.839Z,100960.27
2023-01-21T20:22:44.698Z,100961.84
2023-01-21T20:25:19.194Z,100962.35
2023-01-21T20:28:19.702Z,100959.56
2023-01-21T20:30:47.155Z,100965.27
2023-01-21T20:33:15.563Z,100964.15
2023-01-21T20:35:42.513Z,100965.10
2023-01-21T20:38:13.548Z,100972.51
2023-01-21T20:40:40.399Z,100973.88
2023-01-21T20:43:07.058Z,100975.30
2023-01-21T20:45:36.072Z,100978.10
2023-01-21T20:48:02.909Z,100983.08
2023-01-21T20:50:33.564Z,100989.81
2023-01-21T20:53:00.220Z,100992.07
2023-01-21T20:55:27.111Z,100992.39
2023-01-21T20:57:53.871Z,100996.58
2023-01-21T21:00:21.884Z,100996.91
2023-01-21T21:02:49.180Z,100995.19
2023-01-21T21:05:19.539Z,100997.08
2023-01-21T21:07:46.339Z,101003.85
2023-01-21T21:10:24.004Z,101003.68
2023-01-21T21:12:50.719Z,101007.38
2023-01-21T21:15:17.988Z,101007.92
2023-01-21T21:17:46.931Z,101012.09
2023-01-21T21:20:19.181Z,101012.45
2023-01-21T21:22:46.398Z,101009.95
2023-01-21T21:25:17.266Z,101017.69
2023-01-21T21:27:44.460Z,101024.36
2023-01-21T21:30:16.539Z,101022.02
2023-01-21T21:32:43.245Z,101023.55
2023-01-21T21:35:31.907Z,101022.85
2023-01-21T21:38:01.268Z,101021.48
2023-01-21T21:40:29.386Z,101025.13
2023-01-21T21:43:15.303Z,101030.52
2023-01-21T21:46:02.235Z,101031.77
2023-01-21T21:48:37.983Z,101033.69
2023-01-21T21:51:17.656Z,101033.76
2023-01-21T21:53:44.580Z,101042.86
2023-01-21T21:56:15.346Z,101041.86
2023-01-21T21:58:42.240Z,101040.48
2023-01-21T22:01:19.896Z,101044.98
2023-01-21T22:03:47.375Z,101043.73
2023-01-21T22:06:14.456Z,101043.01
2023-01-21T22:08:41.881Z,101045.96
